Lisbon, Illinois
Current Conditions -  °F | °C
As of 10:35 AM on Tuesday 21 Oct 2014 (Local Time) from KC09 Reporting Station
Clear Clear  
Wind Chill: 54°   Ceiling: Unl
Heat Index: 54°   Visibility: 10mi
Dew Point: 39°   Wind: 6mph
Humidity: 57%   Direction: 40°NE
Pressure: 30.16"   Gusts: NA
Location:  41.5124°N, 88.5214°W
Report Text: KC09 211535Z AUTO 04005KT 10SM CLR 12/04 A3016 RMK AO2 T01220039
Loading
Personal Weather Stations






























Interactive Weather Map
Tropical Storm Tracking
New forecast layout! Learn more

10-Day Weather Forecast

Advertisements
Track Severe Weather on mobile